Time;durP1;ratioP1;P1;durP2;ratioP2;P2;SDS_P1;SDS_P2;PMS_P1;PMS_P2;Temp;Humidity;BMP_temperature;BMP_pressure;BME280_temperature;BME280_humidity;BME280_pressure;Samples;Min_cycle;Max_cycle;Signal;HPM_P1;HPM_P2
2022/03/05 00:01:07;;;;;;;30.60;17.63;;;2.90;99.90;;;;;;5012285;28;20206;-81
2022/03/05 00:03:35;;;;;;;31.90;18.97;;;2.90;99.90;;;;;;5016643;28;20572;-80
2022/03/05 00:06:04;;;;;;;30.03;18.47;;;3.00;99.90;;;;;;5020808;28;20209;-81
2022/03/05 00:08:31;;;;;;;30.40;17.97;;;3.00;99.90;;;;;;5034134;28;20202;-81
2022/03/05 00:10:58;;;;;;;27.90;17.47;;;3.20;99.90;;;;;;5026082;28;20210;-81
2022/03/05 00:13:26;;;;;;;28.20;16.80;;;3.20;99.90;;;;;;5036450;28;20205;-83
2022/03/05 00:15:53;;;;;;;30.83;18.60;;;3.20;99.90;;;;;;5014564;28;20197;-80
2022/03/05 00:18:21;;;;;;;31.20;19.07;;;3.10;99.90;;;;;;5008060;28;20201;-80
2022/03/05 00:20:51;;;;;;;31.90;18.80;;;3.10;99.90;;;;;;5030990;28;20207;-83
2022/03/05 00:23:20;;;;;;;34.90;19.00;;;3.00;99.90;;;;;;5012350;28;20219;-81
2022/03/05 00:25:48;;;;;;;33.27;19.77;;;2.90;99.90;;;;;;5016221;28;20195;-81
2022/03/05 00:28:15;;;;;;;29.43;18.00;;;2.80;99.90;;;;;;5018511;28;20210;-81
2022/03/05 00:30:43;;;;;;;32.10;18.40;;;2.70;99.90;;;;;;5013671;28;20574;-80
2022/03/05 00:33:10;;;;;;;32.07;18.27;;;2.60;99.90;;;;;;5021921;28;20191;-81
2022/03/05 00:35:39;;;;;;;29.87;18.57;;;2.60;99.90;;;;;;5010051;28;20211;-80
2022/03/05 00:38:07;;;;;;;35.50;18.70;;;2.70;99.90;;;;;;5011155;28;20219;-80
2022/03/05 00:40:36;;;;;;;33.87;17.63;;;2.70;99.90;;;;;;5012777;28;20561;-82
2022/03/05 00:43:04;;;;;;;30.40;17.67;;;2.80;99.90;;;;;;5038975;28;20206;-82
2022/03/05 00:45:31;;;;;;;28.63;17.83;;;2.60;99.90;;;;;;5010605;28;20203;-81
2022/03/05 00:47:58;;;;;;;35.10;18.20;;;2.60;99.90;;;;;;5013116;28;20216;-81
2022/03/05 00:50:26;;;;;;;27.93;16.77;;;2.70;99.90;;;;;;5017820;28;20210;-80
2022/03/05 00:52:53;;;;;;;30.43;18.37;;;2.60;99.90;;;;;;5026348;28;20202;-81
2022/03/05 00:55:21;;;;;;;33.00;18.87;;;2.60;99.90;;;;;;5034301;28;20201;-81
2022/03/05 00:57:50;;;;;;;31.57;18.97;;;2.70;99.90;;;;;;5006332;28;20218;-80
2022/03/05 01:00:18;;;;;;;31.23;17.93;;;2.60;99.90;;;;;;5018978;28;20199;-81
2022/03/05 01:02:45;;;;;;;31.67;18.70;;;2.70;99.90;;;;;;5013709;28;20229;-80
2022/03/05 01:05:13;;;;;;;34.77;19.63;;;2.70;99.90;;;;;;5011971;28;20206;-80
2022/03/05 01:07:40;;;;;;;33.97;18.83;;;2.60;99.90;;;;;;5014230;28;20223;-81
2022/03/05 01:10:09;;;;;;;31.67;18.23;;;2.70;99.90;;;;;;5010660;28;20206;-81
2022/03/05 01:12:37;;;;;;;30.60;18.60;;;2.70;99.90;;;;;;5016489;28;20195;-80
2022/03/05 01:15:08;;;;;;;32.27;18.27;;;2.70;99.90;;;;;;5026083;28;20215;-82
2022/03/05 01:17:35;;;;;;;33.47;19.23;;;2.60;99.90;;;;;;5015895;28;20218;-82
2022/03/05 01:20:03;;;;;;;31.43;18.20;;;2.60;99.90;;;;;;5022962;28;20207;-81
2022/03/05 01:22:31;;;;;;;32.10;18.83;;;2.70;99.90;;;;;;5011041;28;20211;-80
2022/03/05 01:24:58;;;;;;;28.30;18.63;;;2.70;99.90;;;;;;5013655;28;20199;-81
2022/03/05 01:27:25;;;;;;;36.20;19.33;;;2.60;99.90;;;;;;5013713;28;20227;-80
2022/03/05 01:29:53;;;;;;;32.70;19.10;;;2.60;99.90;;;;;;5020500;28;20211;-81
2022/03/05 01:32:22;;;;;;;35.33;20.50;;;2.60;99.90;;;;;;5027812;28;20198;-83
2022/03/05 01:34:49;;;;;;;36.77;19.37;;;2.60;99.90;;;;;;5034704;28;20198;-80
2022/03/05 01:37:17;;;;;;;37.87;19.93;;;2.50;99.90;;;;;;5008297;28;20219;-81
2022/03/05 01:39:44;;;;;;;35.47;19.60;;;2.40;99.90;;;;;;5020223;28;20195;-80
2022/03/05 01:42:12;;;;;;;34.80;19.20;;;2.40;99.90;;;;;;5008533;28;20599;-81
2022/03/05 01:44:40;;;;;;;32.73;20.17;;;2.40;99.90;;;;;;5016341;28;20201;-80
2022/03/05 01:47:08;;;;;;;31.33;18.47;;;2.40;99.90;;;;;;5019896;28;20226;-81
2022/03/05 01:49:37;;;;;;;36.30;18.30;;;2.40;99.90;;;;;;5021468;28;20198;-80
2022/03/05 01:52:05;;;;;;;33.43;18.20;;;2.40;99.90;;;;;;5042442;28;20210;-80
2022/03/05 01:54:33;;;;;;;31.83;17.93;;;2.50;99.90;;;;;;5025638;28;20203;-83
2022/03/05 01:57:01;;;;;;;32.13;17.70;;;2.40;99.90;;;;;;5039072;28;20218;-80
2022/03/05 01:59:29;;;;;;;35.47;17.77;;;2.50;99.90;;;;;;5035260;28;20201;-80
2022/03/05 02:01:57;;;;;;;31.57;17.43;;;2.40;99.90;;;;;;5037067;28;20672;-80
2022/03/05 02:04:24;;;;;;;30.80;17.80;;;2.40;99.90;;;;;;5031628;28;20226;-80
2022/03/05 02:06:54;;;;;;;30.50;16.90;;;2.40;99.90;;;;;;5014748;28;20221;-80
2022/03/05 02:09:21;;;;;;;31.90;17.30;;;2.30;99.90;;;;;;5013310;28;20213;-83
2022/03/05 02:11:49;;;;;;;32.50;17.37;;;2.30;99.90;;;;;;5017359;28;20559;-81
2022/03/05 02:14:18;;;;;;;32.90;17.73;;;2.50;99.90;;;;;;5035253;28;20197;-80
2022/03/05 02:16:46;;;;;;;32.07;17.70;;;2.50;99.90;;;;;;5023610;28;20567;-82
2022/03/05 02:19:14;;;;;;;33.47;18.13;;;2.40;99.90;;;;;;5021529;28;20203;-81
2022/03/05 02:21:46;;;;;;;34.80;18.97;;;2.30;99.90;;;;;;5034990;28;20207;-80
2022/03/05 02:24:14;;;;;;;34.07;17.43;;;2.20;99.90;;;;;;5019546;28;20224;-80
2022/03/05 02:26:42;;;;;;;32.33;18.07;;;2.40;99.90;;;;;;5023950;28;20625;-80
2022/03/05 02:29:09;;;;;;;35.73;18.73;;;2.30;99.90;;;;;;5028098;28;20199;-82
2022/03/05 02:31:45;;;;;;;33.50;17.57;;;2.20;99.90;;;;;;5017682;28;20198;-81
2022/03/05 02:34:12;;;;;;;37.43;19.00;;;2.30;99.90;;;;;;5017445;28;20208;-83
2022/03/05 02:36:39;;;;;;;34.23;18.03;;;2.30;99.90;;;;;;5028366;28;20685;-80
2022/03/05 02:39:08;;;;;;;32.63;17.13;;;2.30;99.90;;;;;;5017555;28;20199;-81
2022/03/05 02:41:36;;;;;;;32.07;17.90;;;2.20;99.90;;;;;;5028227;28;20206;-81
2022/03/05 02:44:04;;;;;;;34.27;18.53;;;2.20;99.90;;;;;;5014608;28;20223;-80
2022/03/05 02:46:34;;;;;;;33.80;17.17;;;2.00;99.90;;;;;;5021310;28;20226;-80
2022/03/05 02:49:03;;;;;;;34.33;17.33;;;2.10;99.90;;;;;;5015203;28;20202;-81
2022/03/05 02:51:30;;;;;;;33.67;18.43;;;2.10;99.90;;;;;;5018912;28;20206;-80
2022/03/05 02:53:58;;;;;;;34.23;18.03;;;2.10;99.90;;;;;;5011485;28;20209;-81
2022/03/05 02:56:27;;;;;;;33.93;17.70;;;2.20;99.90;;;;;;5013245;28;20221;-81
2022/03/05 02:58:55;;;;;;;35.13;17.83;;;2.20;99.90;;;;;;5033771;28;20539;-81
2022/03/05 03:01:24;;;;;;;32.27;17.57;;;2.20;99.90;;;;;;5018462;28;20287;-80
2022/03/05 03:03:51;;;;;;;33.37;17.43;;;2.20;99.90;;;;;;5034417;28;20217;-80
2022/03/05 03:06:19;;;;;;;31.20;17.87;;;2.10;99.90;;;;;;5023344;28;20216;-81
2022/03/05 03:08:47;;;;;;;32.57;16.77;;;2.10;99.90;;;;;;5035398;28;20203;-80
2022/03/05 03:11:14;;;;;;;33.73;17.70;;;2.10;99.90;;;;;;5019792;28;20198;-80
2022/03/05 03:13:43;;;;;;;36.93;17.77;;;2.20;99.90;;;;;;5027818;28;20198;-81
2022/03/05 03:16:10;;;;;;;37.47;18.33;;;2.20;99.90;;;;;;5019360;28;20230;-80
2022/03/05 03:18:38;;;;;;;34.60;18.03;;;2.30;99.90;;;;;;5015940;28;20209;-82
2022/03/05 03:21:06;;;;;;;32.67;17.73;;;2.30;99.90;;;;;;5017792;28;20195;-81
2022/03/05 03:23:34;;;;;;;36.70;18.30;;;2.20;99.90;;;;;;5010672;28;20249;-85
2022/03/05 03:26:02;;;;;;;32.53;17.17;;;2.10;99.90;;;;;;5010198;28;20209;-80
2022/03/05 03:28:47;;;;;;;34.00;18.00;;;2.20;99.90;;;;;;5016002;28;20562;-81
2022/03/05 03:31:14;;;;;;;30.10;18.27;;;2.10;99.90;;;;;;5018450;28;20198;-81
2022/03/05 03:33:42;;;;;;;30.67;16.97;;;2.10;99.90;;;;;;5032245;28;20657;-81
2022/03/05 03:36:09;;;;;;;32.20;17.27;;;2.00;99.90;;;;;;5015454;28;20234;-80
2022/03/05 03:38:37;;;;;;;30.90;17.43;;;2.10;99.90;;;;;;5033792;28;20203;-80
2022/03/05 03:41:04;;;;;;;34.37;18.30;;;2.10;99.90;;;;;;5011816;28;20673;-81
2022/03/05 03:43:31;;;;;;;35.00;17.70;;;2.00;99.90;;;;;;5015268;28;20223;-80
2022/03/05 03:46:00;;;;;;;30.03;17.23;;;2.00;99.90;;;;;;5014538;28;20199;-80
2022/03/05 03:48:28;;;;;;;31.23;17.33;;;2.00;99.90;;;;;;5024696;28;20203;-80
2022/03/05 03:50:56;;;;;;;31.43;16.63;;;1.90;99.90;;;;;;5022512;28;20690;-82
2022/03/05 03:53:23;;;;;;;35.03;18.00;;;1.90;99.90;;;;;;5029405;28;20210;-81
2022/03/05 03:55:51;;;;;;;31.33;18.17;;;1.90;99.90;;;;;;5014337;28;20202;-80
2022/03/05 03:58:18;;;;;;;31.60;17.47;;;1.80;99.90;;;;;;5010327;28;20558;-82
2022/03/05 04:00:46;;;;;;;33.73;18.07;;;1.90;99.90;;;;;;5017412;28;20206;-81
2022/03/05 04:03:15;;;;;;;32.17;17.37;;;1.80;99.90;;;;;;5010730;28;20199;-80
2022/03/05 04:05:43;;;;;;;31.60;17.03;;;1.80;99.90;;;;;;5028227;28;20194;-80
2022/03/05 04:10:55;;;;;;;35.70;17.47;;;1.90;99.90;;;;;;5023691;28;20199;-81
2022/03/05 04:13:27;;;;;;;29.90;16.67;;;2.00;99.90;;;;;;5020802;28;20201;-79
2022/03/05 04:15:56;;;;;;;28.83;16.70;;;2.00;99.90;;;;;;5018301;28;20190;-83
2022/03/05 04:18:24;;;;;;;31.93;17.57;;;2.20;99.90;;;;;;5020182;28;20565;-80
2022/03/05 04:20:52;;;;;;;33.50;16.87;;;2.10;99.90;;;;;;5036024;28;20194;-81
2022/03/05 04:23:20;;;;;;;33.30;17.23;;;2.20;99.90;;;;;;5011069;28;20199;-80
2022/03/05 04:25:47;;;;;;;30.43;17.23;;;2.20;99.90;;;;;;5012680;28;20204;-81
2022/03/05 04:28:16;;;;;;;31.47;17.67;;;2.10;99.90;;;;;;5035685;28;20198;-81
2022/03/05 04:30:43;;;;;;;37.40;18.80;;;2.00;99.90;;;;;;5012474;28;20206;-81
2022/03/05 04:33:12;;;;;;;35.33;17.67;;;2.00;99.90;;;;;;5016866;28;20211;-81
2022/03/05 04:35:40;;;;;;;33.03;17.93;;;2.00;99.90;;;;;;5034611;28;20195;-80
2022/03/05 04:38:08;;;;;;;31.33;17.50;;;2.10;99.90;;;;;;5031879;22;20229;-78
2022/03/05 04:40:35;;;;;;;32.90;17.57;;;2.10;99.90;;;;;;5009595;28;20229;-77
2022/03/05 04:43:03;;;;;;;34.23;18.20;;;2.10;99.90;;;;;;5011850;28;20203;-77
2022/03/05 04:45:34;;;;;;;32.30;17.37;;;2.00;99.90;;;;;;5012172;28;20223;-78
2022/03/05 04:48:01;;;;;;;35.43;17.80;;;2.20;99.90;;;;;;5010293;28;20200;-78
2022/03/05 04:50:29;;;;;;;34.53;17.43;;;2.10;99.90;;;;;;5015578;28;20196;-77
2022/03/05 04:52:57;;;;;;;33.67;17.47;;;2.20;99.90;;;;;;5025993;28;20198;-78
2022/03/05 04:55:25;;;;;;;33.27;17.83;;;2.00;99.90;;;;;;5016837;28;20197;-77
2022/03/05 04:57:52;;;;;;;34.23;18.13;;;1.90;99.90;;;;;;5020478;28;20223;-78
2022/03/05 05:00:20;;;;;;;31.00;16.77;;;1.80;99.90;;;;;;5014409;28;20203;-77
2022/03/05 05:02:47;;;;;;;32.37;17.27;;;1.70;99.90;;;;;;5010355;28;20207;-78
2022/03/05 05:05:15;;;;;;;35.27;18.07;;;1.70;99.90;;;;;;5009271;28;20223;-77
2022/03/05 05:07:42;;;;;;;35.03;18.30;;;1.70;99.90;;;;;;5020131;28;20199;-80
2022/03/05 05:10:11;;;;;;;31.63;17.10;;;1.60;99.90;;;;;;5008582;28;20235;-77
2022/03/05 05:12:38;;;;;;;33.57;16.60;;;1.60;99.90;;;;;;5036055;28;20207;-81
2022/03/05 05:15:07;;;;;;;36.03;18.57;;;1.60;99.90;;;;;;5009821;28;20212;-77
2022/03/05 05:17:36;;;;;;;35.17;18.03;;;1.70;99.90;;;;;;5017249;28;20203;-81
2022/03/05 05:20:04;;;;;;;34.67;17.93;;;1.70;99.90;;;;;;5021317;28;20240;-78
2022/03/05 05:22:32;;;;;;;31.87;16.80;;;1.60;99.90;;;;;;5009975;28;20214;-78
2022/03/05 05:24:59;;;;;;;36.10;16.83;;;1.60;99.90;;;;;;5025938;28;20214;-77
2022/03/05 05:27:28;;;;;;;33.90;16.60;;;1.50;99.90;;;;;;5024401;28;20204;-78
2022/03/05 05:29:56;;;;;;;32.03;17.67;;;1.40;99.90;;;;;;5013156;28;20229;-77
2022/03/05 05:32:24;;;;;;;33.00;17.80;;;1.60;99.90;;;;;;5010279;28;20207;-78
2022/03/05 05:34:51;;;;;;;30.53;16.40;;;1.50;99.90;;;;;;5009652;28;20661;-78
2022/03/05 05:37:19;;;;;;;31.87;17.33;;;1.50;99.90;;;;;;5002746;28;20207;-77
2022/03/05 05:39:46;;;;;;;34.03;16.57;;;1.50;99.90;;;;;;5002379;28;20226;-77
2022/03/05 05:42:14;;;;;;;31.93;16.27;;;1.60;99.90;;;;;;5011417;28;20204;-77
2022/03/05 05:44:43;;;;;;;33.70;17.43;;;1.50;99.90;;;;;;5009431;28;20211;-79
2022/03/05 05:47:10;;;;;;;33.40;18.07;;;1.60;99.90;;;;;;5008641;28;20195;-77
2022/03/05 05:49:38;;;;;;;31.87;17.70;;;1.60;99.90;;;;;;5011700;28;20218;-78
2022/03/05 05:52:06;;;;;;;34.17;17.90;;;1.50;99.90;;;;;;5013986;28;20218;-81
2022/03/05 05:54:33;;;;;;;31.17;17.30;;;1.40;99.90;;;;;;5008799;28;20200;-79
2022/03/05 05:57:01;;;;;;;35.50;18.13;;;1.50;99.90;;;;;;5017417;28;20565;-78
2022/03/05 05:59:28;;;;;;;32.33;18.80;;;1.40;99.90;;;;;;5009898;28;20247;-77
2022/03/05 06:01:58;;;;;;;31.93;18.20;;;1.50;99.90;;;;;;5018602;28;20662;-79
2022/03/05 06:04:26;;;;;;;33.13;17.20;;;1.90;99.90;;;;;;5012842;28;20238;-78
2022/03/05 06:06:56;;;;;;;30.97;16.77;;;1.90;99.90;;;;;;5019843;28;20203;-78
2022/03/05 06:09:27;;;;;;;31.80;18.57;;;1.80;99.90;;;;;;5018234;28;20720;-78
2022/03/05 06:11:54;;;;;;;35.57;17.70;;;1.90;99.90;;;;;;5011719;28;20205;-78
2022/03/05 06:14:22;;;;;;;33.10;18.50;;;2.00;99.90;;;;;;5006000;28;20196;-79
2022/03/05 06:16:50;;;;;;;34.27;18.00;;;2.00;99.90;;;;;;5009816;28;20200;-78
2022/03/05 06:19:18;;;;;;;32.93;17.13;;;1.90;99.90;;;;;;5018508;28;20211;-78
2022/03/05 06:21:49;;;;;;;37.23;18.33;;;1.90;99.90;;;;;;5012935;28;20216;-78
2022/03/05 06:24:16;;;;;;;35.40;19.07;;;1.80;99.90;;;;;;5023826;28;20218;-79
2022/03/05 06:26:44;;;;;;;36.10;17.67;;;1.70;99.90;;;;;;5008330;28;20206;-78
2022/03/05 06:29:11;;;;;;;33.80;18.33;;;1.70;99.90;;;;;;5010504;28;20223;-78
2022/03/05 06:31:39;;;;;;;35.17;17.30;;;1.80;99.90;;;;;;5029818;28;20201;-78
2022/03/05 06:34:06;;;;;;;31.47;16.73;;;1.60;99.90;;;;;;5006877;28;20692;-78
2022/03/05 06:36:37;;;;;;;34.43;17.90;;;1.80;99.90;;;;;;5015851;28;20322;-77
2022/03/05 06:39:04;;;;;;;30.43;16.90;;;1.90;99.90;;;;;;5011442;28;20234;-77
2022/03/05 06:41:33;;;;;;;35.67;18.77;;;2.00;99.90;;;;;;5010576;28;20199;-78
2022/03/05 06:44:00;;;;;;;33.67;17.03;;;2.00;99.90;;;;;;5008087;28;20199;-79
2022/03/05 06:46:28;;;;;;;34.63;18.13;;;2.20;99.90;;;;;;5012549;28;20234;-78
2022/03/05 06:48:55;;;;;;;34.43;18.07;;;2.10;99.90;;;;;;5014102;28;20220;-78
2022/03/05 06:51:23;;;;;;;34.93;18.53;;;2.10;99.90;;;;;;5003688;28;20201;-78
2022/03/05 06:53:52;;;;;;;37.00;18.70;;;2.10;99.90;;;;;;5006817;28;20197;-78
2022/03/05 06:56:19;;;;;;;37.97;20.20;;;2.30;99.90;;;;;;5027544;28;20198;-77
2022/03/05 06:58:46;;;;;;;34.63;18.57;;;2.30;99.90;;;;;;5020169;28;20600;-78
2022/03/05 07:01:14;;;;;;;36.30;19.40;;;2.20;99.90;;;;;;5006012;28;20211;-78
2022/03/05 07:03:41;;;;;;;36.30;19.23;;;2.10;99.90;;;;;;5007200;28;20227;-78
2022/03/05 07:06:08;;;;;;;31.40;17.90;;;1.90;99.90;;;;;;5009353;28;20229;-77
2022/03/05 07:08:37;;;;;;;34.83;18.93;;;1.90;99.90;;;;;;5012232;28;20228;-78
2022/03/05 07:11:05;;;;;;;31.90;18.73;;;2.00;99.90;;;;;;5005989;28;20211;-77
2022/03/05 07:13:34;;;;;;;42.10;20.70;;;2.10;99.90;;;;;;5004493;28;20199;-78
2022/03/05 07:16:01;;;;;;;32.97;18.13;;;2.00;99.90;;;;;;5006575;28;20196;-77
2022/03/05 07:18:29;;;;;;;33.33;18.50;;;2.20;99.90;;;;;;5009194;28;20610;-78
2022/03/05 07:20:57;;;;;;;35.93;18.77;;;2.50;99.90;;;;;;5010109;28;20193;-77
2022/03/05 07:23:24;;;;;;;36.23;19.53;;;2.50;99.90;;;;;;4993317;28;20185;-77
2022/03/05 07:25:52;;;;;;;36.53;18.93;;;2.60;99.90;;;;;;5003906;28;20221;-78
2022/03/05 07:28:20;;;;;;;33.73;19.50;;;2.70;99.90;;;;;;5007544;28;20218;-78
2022/03/05 07:30:48;;;;;;;35.47;19.23;;;2.30;99.90;;;;;;5004296;28;20197;-78
2022/03/05 07:33:16;;;;;;;36.53;19.47;;;2.50;99.90;;;;;;5005493;28;20208;-77
2022/03/05 07:35:44;;;;;;;37.00;20.17;;;2.50;99.90;;;;;;5008121;28;20211;-77
2022/03/05 07:38:11;;;;;;;34.93;20.37;;;2.40;99.90;;;;;;5015063;28;20222;-77
2022/03/05 07:40:38;;;;;;;35.27;19.10;;;2.40;99.90;;;;;;5003534;28;20213;-78
2022/03/05 07:43:06;;;;;;;34.63;19.07;;;2.50;99.90;;;;;;5010444;28;20210;-78
2022/03/05 07:45:35;;;;;;;32.93;19.43;;;2.70;99.90;;;;;;5006191;28;20229;-77
2022/03/05 07:48:02;;;;;;;35.20;19.53;;;2.90;99.90;;;;;;5005615;28;20205;-78
2022/03/05 07:50:29;;;;;;;35.43;19.80;;;3.10;99.90;;;;;;5007375;28;20210;-77
2022/03/05 07:52:57;;;;;;;36.13;19.17;;;3.30;99.90;;;;;;5027799;28;20210;-78
2022/03/05 07:55:25;;;;;;;36.27;20.63;;;2.90;99.20;;;;;;5006033;28;20199;-78
2022/03/05 07:57:52;;;;;;;37.97;20.10;;;3.10;99.90;;;;;;5007660;28;20211;-78
2022/03/05 08:00:21;;;;;;;35.00;20.07;;;3.10;99.90;;;;;;5006315;28;20208;-78
2022/03/05 08:02:50;;;;;;;35.53;18.57;;;3.20;99.90;;;;;;5003726;28;20196;-78
2022/03/05 08:05:18;;;;;;;30.50;18.43;;;3.30;99.40;;;;;;5007823;28;20742;-79
2022/03/05 08:07:46;;;;;;;38.20;20.17;;;3.30;99.90;;;;;;5008505;28;20207;-77
2022/03/05 08:10:13;;;;;;;33.27;19.87;;;3.50;99.50;;;;;;5012558;28;20215;-77
2022/03/05 08:12:41;;;;;;;35.60;19.67;;;3.40;99.10;;;;;;5009161;28;20580;-78
2022/03/05 08:15:11;;;;;;;34.53;18.77;;;3.40;99.50;;;;;;5008248;28;20204;-80
2022/03/05 08:17:50;;;;;;;36.23;19.07;;;3.50;99.40;;;;;;5007334;28;20211;-78
2022/03/05 08:20:18;;;;;;;37.47;19.33;;;3.60;99.40;;;;;;5001596;28;20212;-78
2022/03/05 08:22:46;;;;;;;32.30;18.77;;;3.60;99.00;;;;;;5002406;28;20217;-77
2022/03/05 08:25:13;;;;;;;33.90;19.20;;;3.60;99.20;;;;;;5014050;28;20196;-78
2022/03/05 08:27:49;;;;;;;35.77;18.90;;;3.70;99.30;;;;;;5005781;28;20587;-78
2022/03/05 08:30:24;;;;;;;35.80;20.20;;;3.60;98.80;;;;;;5019457;28;20204;-78
2022/03/05 08:32:52;;;;;;;34.83;19.53;;;3.70;99.40;;;;;;5008671;28;20214;-78
2022/03/05 08:35:21;;;;;;;35.23;19.13;;;3.80;98.80;;;;;;5007371;28;20218;-78
2022/03/05 08:37:49;;;;;;;32.73;19.97;;;3.90;99.00;;;;;;5003281;28;20201;-77
2022/03/05 08:40:16;;;;;;;39.20;20.57;;;4.00;99.40;;;;;;5000790;28;20215;-78
2022/03/05 08:42:45;;;;;;;31.00;19.37;;;4.20;98.60;;;;;;5003478;28;20746;-78
2022/03/05 08:45:14;;;;;;;34.77;19.20;;;4.30;98.00;;;;;;4998360;28;20216;-78
2022/03/05 08:47:44;;;;;;;37.47;20.47;;;4.20;98.10;;;;;;5012655;28;20233;-79
2022/03/05 08:50:13;;;;;;;33.10;19.10;;;4.30;98.50;;;;;;5001164;28;20215;-78
2022/03/05 08:52:41;;;;;;;32.80;18.77;;;4.40;98.50;;;;;;5006360;28;20644;-78
2022/03/05 08:55:11;;;;;;;33.70;19.03;;;4.50;98.10;;;;;;5021609;28;20199;-77
2022/03/05 08:57:39;;;;;;;34.53;20.07;;;4.60;98.20;;;;;;5004724;28;20210;-78
2022/03/05 09:00:10;;;;;;;35.37;18.77;;;4.60;97.70;;;;;;5010333;28;20236;-78
2022/03/05 09:02:37;;;;;;;35.27;19.03;;;4.50;97.40;;;;;;5004584;28;20210;-76
2022/03/05 09:05:05;;;;;;;34.23;19.47;;;4.60;97.60;;;;;;5002229;28;20194;-78
2022/03/05 09:07:34;;;;;;;35.57;19.13;;;4.70;97.60;;;;;;5007337;28;20224;-78
2022/03/05 09:10:04;;;;;;;35.50;19.67;;;4.50;97.70;;;;;;5019177;28;20222;-78
2022/03/05 09:12:32;;;;;;;32.43;18.73;;;4.60;98.10;;;;;;5018836;28;20216;-77
2022/03/05 09:14:59;;;;;;;34.50;19.13;;;4.70;98.40;;;;;;5027305;28;20731;-78
2022/03/05 09:17:27;;;;;;;33.73;19.40;;;4.80;98.50;;;;;;5002365;28;20208;-78
2022/03/05 09:19:55;;;;;;;33.50;18.33;;;5.10;98.40;;;;;;5009577;28;20241;-78
2022/03/05 09:22:23;;;;;;;30.77;18.20;;;5.40;97.60;;;;;;5021846;28;20215;-78
2022/03/05 09:24:52;;;;;;;34.80;19.77;;;5.30;96.80;;;;;;5009735;28;20214;-79
2022/03/05 09:27:19;;;;;;;30.77;17.80;;;5.40;96.60;;;;;;5006165;28;20224;-78
2022/03/05 09:29:47;;;;;;;31.13;17.40;;;5.30;97.30;;;;;;5006508;28;20233;-78
2022/03/05 09:32:14;;;;;;;30.63;18.57;;;5.30;96.80;;;;;;5019512;28;20199;-78
2022/03/05 09:34:41;;;;;;;31.97;18.43;;;5.50;96.60;;;;;;5005426;28;20564;-78
2022/03/05 09:37:09;;;;;;;32.13;17.60;;;5.50;96.80;;;;;;5006959;28;20214;-79
2022/03/05 09:39:37;;;;;;;30.20;17.07;;;5.70;96.30;;;;;;5023426;28;20261;-78
2022/03/05 09:42:06;;;;;;;29.83;16.97;;;5.80;96.30;;;;;;5022169;28;20211;-77
2022/03/05 09:44:34;;;;;;;28.43;16.57;;;6.10;95.20;;;;;;5004606;28;20274;-78
2022/03/05 09:47:05;;;;;;;25.57;17.30;;;6.20;94.50;;;;;;5004455;28;20593;-79
2022/03/05 09:49:38;;;;;;;31.87;17.40;;;6.20;94.10;;;;;;5021489;28;20223;-79
2022/03/05 09:52:06;;;;;;;28.27;17.77;;;6.40;94.40;;;;;;4998630;28;20267;-78
2022/03/05 09:54:41;;;;;;;26.30;16.47;;;6.50;94.80;;;;;;5007231;28;20211;-79
2022/03/05 09:57:14;;;;;;;23.77;14.73;;;6.70;94.20;;;;;;5005093;28;20674;-78
2022/03/05 09:59:41;;;;;;;26.33;15.53;;;6.80;93.20;;;;;;5002686;28;20238;-78
2022/03/05 10:02:10;;;;;;;24.83;15.43;;;7.00;93.10;;;;;;5022874;28;20214;-79
2022/03/05 10:04:39;;;;;;;27.03;16.90;;;6.90;92.10;;;;;;5018530;28;20219;-78
2022/03/05 10:07:08;;;;;;;25.77;15.03;;;6.90;91.50;;;;;;5005507;28;20208;-80
2022/03/05 10:09:36;;;;;;;23.70;15.33;;;6.90;91.50;;;;;;5000595;28;20228;-79
2022/03/05 10:12:23;;;;;;;24.20;15.23;;;7.10;91.20;;;;;;5020671;28;20203;-78
2022/03/05 10:15:08;;;;;;;24.60;14.07;;;7.20;89.80;;;;;;5003597;28;20577;-78
2022/03/05 10:17:57;;;;;;;20.80;14.23;;;7.20;89.00;;;;;;5008026;28;20545;-78
2022/03/05 10:20:27;;;;;;;23.80;14.83;;;7.30;89.50;;;;;;5006321;28;20203;-78
2022/03/05 10:22:58;;;;;;;23.67;15.57;;;7.40;90.70;;;;;;5016049;28;20629;-79
2022/03/05 10:25:31;;;;;;;22.10;14.40;;;7.60;90.10;;;;;;5010478;28;20203;-79
2022/03/05 10:28:03;;;;;;;21.90;14.23;;;7.80;89.80;;;;;;5026750;28;20199;-78
2022/03/05 10:30:33;;;;;;;25.33;15.40;;;7.90;89.00;;;;;;5009648;28;20208;-79
2022/03/05 10:33:01;;;;;;;23.13;15.17;;;8.00;87.70;;;;;;5003277;28;20195;-80
2022/03/05 10:35:29;;;;;;;22.90;14.10;;;8.10;86.80;;;;;;5013045;28;20666;-79
2022/03/05 10:37:56;;;;;;;25.60;14.93;;;8.40;85.70;;;;;;5015993;28;20199;-79
2022/03/05 10:40:32;;;;;;;23.00;14.57;;;8.50;85.10;;;;;;5002909;28;20203;-80
2022/03/05 10:43:01;;;;;;;23.20;14.87;;;8.70;83.70;;;;;;5007899;28;20199;-79
2022/03/05 10:45:30;;;;;;;22.90;14.63;;;8.60;82.20;;;;;;5033908;28;20204;-78
2022/03/05 10:48:00;;;;;;;22.53;14.87;;;8.70;83.20;;;;;;5007382;28;20222;-82
2022/03/05 10:50:29;;;;;;;20.23;13.63;;;8.60;81.30;;;;;;5008785;28;20211;-79
2022/03/05 10:53:00;;;;;;;21.53;13.67;;;8.80;79.40;;;;;;5009921;28;20218;-81
2022/03/05 10:55:29;;;;;;;21.27;13.93;;;8.90;79.20;;;;;;5007756;28;20211;-80
2022/03/05 10:57:59;;;;;;;20.03;13.50;;;8.70;77.50;;;;;;5024238;28;20213;-79
2022/03/05 11:00:27;;;;;;;19.57;13.13;;;8.70;75.40;;;;;;5005888;28;20215;-79
2022/03/05 11:02:56;;;;;;;17.63;12.40;;;9.10;75.20;;;;;;5009646;28;20561;-79
2022/03/05 11:05:25;;;;;;;21.20;12.87;;;8.80;74.20;;;;;;5008563;28;20207;-80
2022/03/05 11:07:54;;;;;;;21.50;13.30;;;8.70;72.40;;;;;;5009555;28;20647;-80
2022/03/05 11:10:26;;;;;;;18.87;12.70;;;8.60;73.60;;;;;;5010922;28;20200;-81
2022/03/05 11:12:56;;;;;;;17.03;12.17;;;8.80;71.40;;;;;;5013258;28;20658;-80
2022/03/05 11:15:25;;;;;;;18.37;12.40;;;9.10;73.40;;;;;;5009035;28;20201;-79
2022/03/05 11:17:52;;;;;;;20.13;13.17;;;9.70;71.30;;;;;;5012999;28;20202;-80
2022/03/05 11:20:20;;;;;;;16.53;12.37;;;9.90;70.60;;;;;;5012274;28;20208;-79
2022/03/05 11:22:50;;;;;;;17.20;12.67;;;10.10;67.30;;;;;;5008612;28;20207;-80
2022/03/05 11:25:22;;;;;;;16.37;12.10;;;10.00;68.60;;;;;;5012924;28;20203;-80
2022/03/05 11:28:08;;;;;;;16.30;11.67;;;10.30;66.50;;;;;;5031257;28;20239;-79
2022/03/05 11:30:43;;;;;;;17.13;12.90;;;10.70;61.60;;;;;;5009022;28;20203;-80
2022/03/05 11:33:11;;;;;;;19.83;11.73;;;10.90;62.90;;;;;;5013842;28;20203;-78
2022/03/05 11:35:43;;;;;;;17.80;12.37;;;11.10;63.40;;;;;;5038003;23;20727;-77
2022/03/05 11:38:34;;;;;;;17.00;12.77;;;10.90;61.00;;;;;;5010331;28;20575;-77
2022/03/05 11:41:07;;;;;;;17.63;13.00;;;11.50;57.70;;;;;;5030210;28;20203;-77
2022/03/05 11:43:42;;;;;;;18.47;12.30;;;11.60;56.80;;;;;;5019269;28;20553;-77
2022/03/05 11:46:23;;;;;;;19.30;13.25;;;11.80;55.80;;;;;;4993633;28;20222;-77
2022/03/05 11:49:01;;;;;;;18.10;12.95;;;12.40;54.70;;;;;;5012563;28;20228;-77
2022/03/05 11:51:29;;;;;;;16.00;11.70;;;12.20;53.00;;;;;;5024258;28;20229;-77
2022/03/05 11:54:12;;;;;;;16.75;11.77;;;11.80;52.30;;;;;;5033537;28;20203;-77
2022/03/05 11:56:39;;;;;;;16.70;12.35;;;11.40;50.00;;;;;;5006616;28;20220;-77
2022/03/05 11:59:31;;;;;;;18.10;12.73;;;11.10;49.40;;;;;;4992835;28;20208;-77
2022/03/05 12:01:59;;;;;;;15.77;11.37;;;11.20;48.60;;;;;;5009267;28;20195;-77
2022/03/05 12:04:28;;;;;;;15.60;11.20;;;11.40;50.00;;;;;;4995717;28;20573;-77
2022/03/05 12:06:58;;;;;;;15.43;11.85;;;12.50;48.20;;;;;;5003199;28;20682;-77
2022/03/05 12:09:41;;;;;;;16.35;12.25;;;12.70;47.50;;;;;;5004477;28;20202;-78
2022/03/05 12:12:11;;;;;;;19.30;11.57;;;12.20;45.60;;;;;;4995298;28;20195;-78
2022/03/05 12:15:10;;;;;;;14.20;10.80;;;13.30;45.80;;;;;;4995415;28;20219;-77
2022/03/05 12:17:41;;;;;;;15.20;11.32;;;12.90;45.90;;;;;;4995444;28;20657;-77
2022/03/05 12:20:10;;;;;;;16.02;11.85;;;13.80;46.50;;;;;;4995609;28;20200;-77
2022/03/05 12:22:46;;;;;;;16.48;11.52;;;12.90;44.80;;;;;;5007280;28;20199;-77
2022/03/05 12:25:15;;;;;;;13.57;10.18;;;13.70;46.20;;;;;;5008958;28;20227;-77
2022/03/05 12:27:47;;;;;;;14.00;10.20;;;14.10;44.20;;;;;;5007179;28;20597;-77
2022/03/05 12:30:15;;;;;;;15.15;10.00;;;14.30;43.50;;;;;;4995414;28;20203;-78
2022/03/05 12:32:45;;;;;;;13.68;10.45;;;14.90;42.20;;;;;;5011398;28;20204;-77
2022/03/05 12:35:16;;;;;;;13.55;10.50;;;15.00;41.40;;;;;;5011280;28;20562;-77
2022/03/05 12:37:43;;;;;;;15.43;10.82;;;14.70;40.00;;;;;;5012672;28;20188;-77
2022/03/05 12:40:13;;;;;;;16.60;11.32;;;15.00;41.00;;;;;;5011730;28;20200;-77
2022/03/05 12:42:43;;;;;;;13.75;10.57;;;15.60;40.20;;;;;;5024340;28;20206;-78
2022/03/05 12:45:17;;;;;;;14.18;11.20;;;15.10;38.90;;;;;;5006412;28;20612;-78
2022/03/05 12:47:44;;;;;;;14.65;10.95;;;13.90;39.60;;;;;;5000476;28;20224;-78